AUA591 LOWW-LIBD
Flight info
| Callsign | AUA591 |
|---|---|
| Flight time | 1h 15m |
| Altitude | 37000 |
| Route | STEIN DCT NOHAT DCT KOPRY DCT DIXUM DCT ORAKA DCT AIOSA DCT BANAV |
| Aircraft | A20N/M-SDE2E3FGHIJ1RWXY/LB1 |
Departure
| Time | 2026-04-23 16:14 |
|---|---|
| Airport | Vienna International Airport (LOWW) |
Arrival
| Time | 2026-04-23 17:29 |
|---|---|
| Airport | Bari Karol Wojtyła International Airport (LIBD) |
| Time | Latitude | Longitude | Altitude | Speed | Heading |
|---|---|---|---|---|---|
| 2026-04-23 15:42 | 48.11901 | 16.56769 | 608 ft | 0 kts | 205° |
| 2026-04-23 16:00 | 48.11903 | 16.56770 | 608 ft | 1 kts | 206° |
| 2026-04-23 16:00 | 48.11916 | 16.56780 | 608 ft | 2 kts | 204° |
| 2026-04-23 16:00 | 48.11925 | 16.56786 | 608 ft | 2 kts | 205° |
| 2026-04-23 16:00 | 48.11939 | 16.56792 | 608 ft | 2 kts | 182° |
| 2026-04-23 16:01 | 48.11954 | 16.56790 | 608 ft | 2 kts | 164° |
| 2026-04-23 16:01 | 48.11968 | 16.56781 | 608 ft | 2 kts | 144° |
| 2026-04-23 16:01 | 48.11979 | 16.56765 | 608 ft | 2 kts | 125° |
| 2026-04-23 16:01 | 48.11983 | 16.56755 | 608 ft | 1 kts | 114° |
| 2026-04-23 16:02 | 48.11984 | 16.56749 | 608 ft | 0 kts | 116° |
| 2026-04-23 16:03 | 48.11984 | 16.56750 | 608 ft | 0 kts | 116° |
| 2026-04-23 16:03 | 48.11972 | 16.56784 | 608 ft | 7 kts | 118° |
| 2026-04-23 16:03 | 48.11941 | 16.56874 | 608 ft | 10 kts | 117° |
| 2026-04-23 16:03 | 48.11910 | 16.56973 | 608 ft | 10 kts | 115° |
| 2026-04-23 16:04 | 48.11876 | 16.57074 | 608 ft | 10 kts | 118° |
| 2026-04-23 16:04 | 48.11855 | 16.57165 | 608 ft | 9 kts | 92° |
| 2026-04-23 16:04 | 48.11838 | 16.57260 | 608 ft | 9 kts | 115° |
| 2026-04-23 16:04 | 48.11797 | 16.57343 | 608 ft | 10 kts | 152° |
| 2026-04-23 16:05 | 48.11751 | 16.57367 | 608 ft | 10 kts | 163° |
| 2026-04-23 16:05 | 48.11654 | 16.57408 | 608 ft | 10 kts | 162° |
| 2026-04-23 16:05 | 48.11581 | 16.57442 | 608 ft | 11 kts | 165° |
| 2026-04-23 16:05 | 48.11503 | 16.57457 | 608 ft | 11 kts | 191° |
| 2026-04-23 16:06 | 48.11441 | 16.57422 | 608 ft | 8 kts | 205° |
| 2026-04-23 16:06 | 48.11389 | 16.57384 | 608 ft | 8 kts | 206° |
| 2026-04-23 16:06 | 48.11340 | 16.57349 | 608 ft | 7 kts | 205° |
| 2026-04-23 16:06 | 48.11291 | 16.57314 | 608 ft | 7 kts | 206° |
| 2026-04-23 16:07 | 48.11243 | 16.57278 | 608 ft | 7 kts | 206° |
| 2026-04-23 16:07 | 48.11195 | 16.57244 | 608 ft | 7 kts | 207° |
| 2026-04-23 16:07 | 48.11172 | 16.57227 | 608 ft | 0 kts | 205° |
| 2026-04-23 16:11 | 48.11172 | 16.57226 | 608 ft | 0 kts | 206° |
| 2026-04-23 16:12 | 48.11159 | 16.57217 | 608 ft | 3 kts | 206° |
| 2026-04-23 16:12 | 48.11134 | 16.57198 | 608 ft | 5 kts | 210° |
| 2026-04-23 16:12 | 48.11104 | 16.57159 | 608 ft | 6 kts | 231° |
| 2026-04-23 16:12 | 48.11084 | 16.57102 | 608 ft | 6 kts | 255° |
| 2026-04-23 16:13 | 48.11084 | 16.57034 | 608 ft | 6 kts | 282° |
| 2026-04-23 16:13 | 48.11134 | 16.56859 | 608 ft | 20 kts | 296° |
| 2026-04-23 16:13 | 48.11315 | 16.56302 | 608 ft | 95 kts | 296° |
| 2026-04-23 16:14 | 48.11686 | 16.55122 | 649 ft | 150 kts | 292° |
| 2026-04-23 16:14 | 48.12103 | 16.53740 | 1369 ft | 144 kts | 298° |
| 2026-04-23 16:14 | 48.12161 | 16.52255 | 1942 ft | 168 kts | 251° |
| 2026-04-23 16:14 | 48.11227 | 16.51031 | 2588 ft | 193 kts | 219° |
| 2026-04-23 16:15 | 48.10049 | 16.49953 | 3119 ft | 206 kts | 224° |
| 2026-04-23 16:15 | 48.08884 | 16.48633 | 3619 ft | 223 kts | 227° |
| 2026-04-23 16:15 | 48.07491 | 16.47366 | 4176 ft | 253 kts | 202° |
| 2026-04-23 16:15 | 48.05648 | 16.47287 | 4701 ft | 283 kts | 175° |
| 2026-04-23 16:16 | 48.03660 | 16.47797 | 5347 ft | 299 kts | 172° |
| 2026-04-23 16:16 | 48.01569 | 16.48325 | 6098 ft | 310 kts | 175° |
| 2026-04-23 16:16 | 47.99461 | 16.48758 | 7069 ft | 311 kts | 176° |
| 2026-04-23 16:16 | 47.97297 | 16.48973 | 7842 ft | 316 kts | 189° |
| 2026-04-23 16:17 | 47.95212 | 16.48109 | 8764 ft | 310 kts | 210° |
| 2026-04-23 16:17 | 47.93303 | 16.46636 | 9625 ft | 312 kts | 214° |
| 2026-04-23 16:17 | 47.91413 | 16.45038 | 10407 ft | 317 kts | 215° |
| 2026-04-23 16:17 | 47.89464 | 16.43423 | 10894 ft | 335 kts | 207° |
| 2026-04-23 16:18 | 47.87105 | 16.42655 | 11225 ft | 359 kts | 180° |
| 2026-04-23 16:18 | 47.84617 | 16.43226 | 11877 ft | 366 kts | 165° |
| 2026-04-23 16:18 | 47.82171 | 16.44234 | 12698 ft | 368 kts | 162° |
| 2026-04-23 16:18 | 47.79722 | 16.45318 | 13541 ft | 369 kts | 161° |
| 2026-04-23 16:19 | 47.77260 | 16.46381 | 14303 ft | 373 kts | 162° |
| 2026-04-23 16:19 | 47.74760 | 16.47421 | 15059 ft | 376 kts | 162° |
| 2026-04-23 16:19 | 47.72240 | 16.48436 | 15802 ft | 379 kts | 163° |
| 2026-04-23 16:19 | 47.69675 | 16.49452 | 16498 ft | 383 kts | 163° |
| 2026-04-23 16:20 | 47.67118 | 16.50459 | 17172 ft | 387 kts | 163° |
| 2026-04-23 16:20 | 47.64500 | 16.51488 | 17848 ft | 390 kts | 163° |
| 2026-04-23 16:20 | 47.61837 | 16.52533 | 18475 ft | 395 kts | 163° |
| 2026-04-23 16:20 | 47.59183 | 16.53573 | 19118 ft | 398 kts | 162° |
| 2026-04-23 16:21 | 47.56504 | 16.54619 | 19757 ft | 401 kts | 162° |
| 2026-04-23 16:21 | 47.53827 | 16.55665 | 20391 ft | 403 kts | 162° |
| 2026-04-23 16:21 | 47.51109 | 16.56728 | 21004 ft | 407 kts | 162° |
| 2026-04-23 16:21 | 47.48368 | 16.57797 | 21602 ft | 410 kts | 162° |
| 2026-04-23 16:22 | 47.45614 | 16.58857 | 22219 ft | 414 kts | 163° |
| 2026-04-23 16:22 | 47.42767 | 16.59689 | 22825 ft | 418 kts | 169° |
| 2026-04-23 16:22 | 47.39893 | 16.60146 | 23402 ft | 423 kts | 175° |
| 2026-04-23 16:22 | 47.36951 | 16.60315 | 23969 ft | 427 kts | 176° |
| 2026-04-23 16:23 | 47.33975 | 16.60427 | 24497 ft | 430 kts | 176° |
| 2026-04-23 16:23 | 47.30993 | 16.60534 | 25021 ft | 433 kts | 176° |
| 2026-04-23 16:23 | 47.27945 | 16.60650 | 25542 ft | 436 kts | 176° |
| 2026-04-23 16:23 | 47.24916 | 16.60774 | 26041 ft | 439 kts | 176° |
| 2026-04-23 16:24 | 47.21858 | 16.60900 | 26508 ft | 442 kts | 176° |
| 2026-04-23 16:24 | 47.18808 | 16.61031 | 26943 ft | 446 kts | 175° |
| 2026-04-23 16:24 | 47.15694 | 16.61164 | 27400 ft | 448 kts | 175° |
| 2026-04-23 16:24 | 47.12573 | 16.61300 | 27818 ft | 451 kts | 175° |
| 2026-04-23 16:25 | 47.09444 | 16.61436 | 28221 ft | 454 kts | 175° |
| 2026-04-23 16:25 | 47.06271 | 16.61572 | 28611 ft | 457 kts | 175° |
| 2026-04-23 16:25 | 47.03111 | 16.61708 | 28994 ft | 459 kts | 175° |
| 2026-04-23 16:25 | 46.99931 | 16.61845 | 29363 ft | 461 kts | 175° |
| 2026-04-23 16:26 | 46.96692 | 16.61983 | 29712 ft | 464 kts | 175° |
| 2026-04-23 16:26 | 46.93497 | 16.62119 | 30178 ft | 462 kts | 174° |
| 2026-04-23 16:26 | 46.90318 | 16.62255 | 30668 ft | 460 kts | 174° |
| 2026-04-23 16:26 | 46.87117 | 16.62514 | 31110 ft | 457 kts | 171° |
| 2026-04-23 16:27 | 46.84010 | 16.63045 | 31522 ft | 454 kts | 167° |
| 2026-04-23 16:27 | 46.80920 | 16.63869 | 31906 ft | 451 kts | 163° |
| 2026-04-23 16:27 | 46.77891 | 16.64974 | 32290 ft | 448 kts | 160° |
| 2026-04-23 16:27 | 46.74934 | 16.66349 | 32663 ft | 445 kts | 156° |
| 2026-04-23 16:28 | 46.72084 | 16.67959 | 33014 ft | 442 kts | 153° |
| 2026-04-23 16:28 | 46.69243 | 16.69664 | 33361 ft | 442 kts | 153° |
| 2026-04-23 16:28 | 46.66414 | 16.71358 | 33721 ft | 440 kts | 153° |
| 2026-04-23 16:28 | 46.63588 | 16.73045 | 34064 ft | 440 kts | 153° |
| 2026-04-23 16:29 | 46.60767 | 16.74719 | 34397 ft | 439 kts | 153° |
| 2026-04-23 16:29 | 46.57962 | 16.76379 | 34682 ft | 438 kts | 153° |
| 2026-04-23 16:29 | 46.55124 | 16.78054 | 34945 ft | 438 kts | 153° |
| 2026-04-23 16:29 | 46.52334 | 16.79702 | 35184 ft | 438 kts | 154° |
| 2026-04-23 16:30 | 46.49513 | 16.81365 | 35422 ft | 438 kts | 154° |
| 2026-04-23 16:30 | 46.46704 | 16.83017 | 35621 ft | 439 kts | 154° |
| 2026-04-23 16:30 | 46.43863 | 16.84686 | 35787 ft | 441 kts | 154° |
| 2026-04-23 16:30 | 46.41018 | 16.86355 | 35977 ft | 442 kts | 154° |
| 2026-04-23 16:31 | 46.38158 | 16.88031 | 36169 ft | 443 kts | 154° |
| 2026-04-23 16:31 | 46.35323 | 16.89689 | 36391 ft | 443 kts | 154° |
| 2026-04-23 16:31 | 46.32455 | 16.91366 | 36610 ft | 444 kts | 154° |
| 2026-04-23 16:31 | 46.29589 | 16.92976 | 36803 ft | 447 kts | 157° |
| 2026-04-23 16:32 | 46.26630 | 16.94366 | 37000 ft | 450 kts | 161° |
| 2026-04-23 16:32 | 46.23602 | 16.95495 | 37074 ft | 453 kts | 164° |
| 2026-04-23 16:32 | 46.17387 | 16.96908 | 37081 ft | 456 kts | 172° |
| 2026-04-23 16:33 | 46.11052 | 16.97493 | 37080 ft | 456 kts | 174° |
| 2026-04-23 16:33 | 46.04710 | 16.98041 | 37083 ft | 456 kts | 174° |
| 2026-04-23 16:34 | 45.98431 | 16.98597 | 37082 ft | 456 kts | 174° |
| 2026-04-23 16:34 | 45.92092 | 16.99162 | 37081 ft | 456 kts | 174° |
| 2026-04-23 16:35 | 45.85782 | 16.99724 | 37083 ft | 456 kts | 174° |
| 2026-04-23 16:35 | 45.79480 | 17.00286 | 37087 ft | 456 kts | 174° |
| 2026-04-23 16:36 | 45.73139 | 17.00852 | 37094 ft | 456 kts | 174° |
| 2026-04-23 16:36 | 45.66828 | 17.01412 | 37085 ft | 457 kts | 174° |
| 2026-04-23 16:37 | 45.60487 | 17.01971 | 37087 ft | 456 kts | 174° |
| 2026-04-23 16:37 | 45.54165 | 17.02530 | 37099 ft | 456 kts | 174° |
| 2026-04-23 16:38 | 45.47865 | 17.03088 | 37094 ft | 457 kts | 174° |
| 2026-04-23 16:38 | 45.41525 | 17.03646 | 37102 ft | 457 kts | 174° |
| 2026-04-23 16:39 | 45.35221 | 17.04199 | 37102 ft | 456 kts | 174° |
| 2026-04-23 16:39 | 45.28857 | 17.04756 | 37102 ft | 457 kts | 174° |
| 2026-04-23 16:40 | 45.22548 | 17.05306 | 37094 ft | 457 kts | 174° |
| 2026-04-23 16:40 | 45.19382 | 17.05582 | 37366 ft | 457 kts | 174° |
| 2026-04-23 16:40 | 45.16221 | 17.05857 | 37189 ft | 455 kts | 174° |
| 2026-04-23 16:41 | 45.09947 | 17.06405 | 37122 ft | 454 kts | 174° |
| 2026-04-23 16:41 | 45.03636 | 17.06954 | 37111 ft | 454 kts | 174° |
| 2026-04-23 16:42 | 44.97329 | 17.07498 | 37111 ft | 455 kts | 174° |
| 2026-04-23 16:42 | 44.91029 | 17.08041 | 37110 ft | 454 kts | 174° |
| 2026-04-23 16:43 | 44.84756 | 17.08581 | 37129 ft | 455 kts | 174° |
| 2026-04-23 16:43 | 44.78463 | 17.09123 | 36927 ft | 455 kts | 174° |
| 2026-04-23 16:44 | 44.75274 | 17.09398 | 37033 ft | 456 kts | 174° |
| 2026-04-23 16:44 | 44.72149 | 17.09669 | 37086 ft | 457 kts | 174° |
| 2026-04-23 16:44 | 44.65805 | 17.10212 | 37110 ft | 457 kts | 174° |
| 2026-04-23 16:45 | 44.59445 | 17.10753 | 37117 ft | 457 kts | 174° |
| 2026-04-23 16:45 | 44.53083 | 17.11295 | 37115 ft | 457 kts | 174° |
| 2026-04-23 16:46 | 44.46782 | 17.11832 | 37103 ft | 456 kts | 174° |
| 2026-04-23 16:46 | 44.40442 | 17.12371 | 37107 ft | 456 kts | 173° |
| 2026-04-23 16:47 | 44.34095 | 17.12909 | 37102 ft | 457 kts | 174° |
| 2026-04-23 16:47 | 44.27753 | 17.13445 | 37110 ft | 457 kts | 173° |
| 2026-04-23 16:48 | 44.21425 | 17.13979 | 37106 ft | 457 kts | 173° |
| 2026-04-23 16:48 | 44.15104 | 17.14509 | 37097 ft | 456 kts | 173° |
| 2026-04-23 16:49 | 44.08748 | 17.15046 | 37095 ft | 457 kts | 173° |
| 2026-04-23 16:49 | 44.02434 | 17.15574 | 37095 ft | 456 kts | 173° |
| 2026-04-23 16:50 | 43.96086 | 17.16106 | 37093 ft | 456 kts | 173° |
| 2026-04-23 16:50 | 43.89759 | 17.16633 | 37096 ft | 457 kts | 173° |
| 2026-04-23 16:51 | 43.83435 | 17.17156 | 37095 ft | 457 kts | 173° |
| 2026-04-23 16:51 | 43.77108 | 17.17682 | 37096 ft | 456 kts | 173° |
| 2026-04-23 16:52 | 43.70768 | 17.18209 | 37099 ft | 457 kts | 173° |
| 2026-04-23 16:52 | 43.64398 | 17.18737 | 37100 ft | 457 kts | 173° |
| 2026-04-23 16:53 | 43.58084 | 17.19255 | 37092 ft | 457 kts | 173° |
| 2026-04-23 16:53 | 43.51727 | 17.19778 | 37094 ft | 457 kts | 173° |
| 2026-04-23 16:54 | 43.45352 | 17.19978 | 37086 ft | 459 kts | 176° |
| 2026-04-23 16:54 | 43.39008 | 17.19987 | 37090 ft | 459 kts | 176° |
| 2026-04-23 16:55 | 43.32590 | 17.19994 | 37084 ft | 459 kts | 176° |
| 2026-04-23 16:55 | 43.26121 | 17.20007 | 36848 ft | 474 kts | 176° |
| 2026-04-23 16:56 | 43.22816 | 17.20013 | 36351 ft | 480 kts | 176° |
| 2026-04-23 16:56 | 43.19472 | 17.20018 | 35746 ft | 481 kts | 176° |
| 2026-04-23 16:56 | 43.16166 | 17.20024 | 34999 ft | 485 kts | 176° |
| 2026-04-23 16:56 | 43.12762 | 17.20028 | 34116 ft | 489 kts | 176° |
| 2026-04-23 16:57 | 43.09407 | 17.20032 | 33258 ft | 490 kts | 176° |
| 2026-04-23 16:57 | 43.05969 | 17.20035 | 32514 ft | 488 kts | 176° |
| 2026-04-23 16:57 | 43.02645 | 17.20037 | 32009 ft | 481 kts | 176° |
| 2026-04-23 16:57 | 42.99323 | 17.20037 | 31512 ft | 475 kts | 175° |
| 2026-04-23 16:58 | 42.96051 | 17.20037 | 31014 ft | 470 kts | 175° |
| 2026-04-23 16:58 | 42.92789 | 17.20037 | 30472 ft | 466 kts | 175° |
| 2026-04-23 16:58 | 42.89558 | 17.20040 | 29933 ft | 461 kts | 175° |
| 2026-04-23 16:58 | 42.86398 | 17.20042 | 29435 ft | 456 kts | 175° |
| 2026-04-23 16:59 | 42.83246 | 17.20046 | 28951 ft | 451 kts | 175° |
| 2026-04-23 16:59 | 42.80141 | 17.20048 | 28478 ft | 446 kts | 175° |
| 2026-04-23 16:59 | 42.77057 | 17.20050 | 28001 ft | 441 kts | 175° |
| 2026-04-23 16:59 | 42.74007 | 17.20055 | 27527 ft | 437 kts | 175° |
| 2026-04-23 17:00 | 42.70988 | 17.20057 | 27057 ft | 434 kts | 175° |
| 2026-04-23 17:00 | 42.68000 | 17.20054 | 26601 ft | 430 kts | 174° |
| 2026-04-23 17:00 | 42.65005 | 17.20057 | 26132 ft | 426 kts | 174° |
| 2026-04-23 17:00 | 42.62042 | 17.20057 | 25674 ft | 423 kts | 174° |
| 2026-04-23 17:01 | 42.59132 | 17.20056 | 25217 ft | 419 kts | 174° |
| 2026-04-23 17:01 | 42.56248 | 17.20059 | 24754 ft | 416 kts | 174° |
| 2026-04-23 17:01 | 42.53360 | 17.20103 | 24295 ft | 411 kts | 172° |
| 2026-04-23 17:01 | 42.50531 | 17.20305 | 23841 ft | 407 kts | 171° |
| 2026-04-23 17:02 | 42.48661 | 17.20454 | 23536 ft | 406 kts | 171° |
| 2026-04-23 17:02 | 42.44853 | 17.20761 | 22916 ft | 403 kts | 171° |
| 2026-04-23 17:02 | 42.42069 | 17.20985 | 22463 ft | 400 kts | 171° |
| 2026-04-23 17:02 | 42.39295 | 17.21204 | 22008 ft | 398 kts | 171° |
| 2026-04-23 17:03 | 42.36575 | 17.21420 | 21558 ft | 396 kts | 171° |
| 2026-04-23 17:03 | 42.33819 | 17.21639 | 21093 ft | 394 kts | 171° |
| 2026-04-23 17:03 | 42.31092 | 17.21855 | 20632 ft | 392 kts | 171° |
| 2026-04-23 17:03 | 42.28388 | 17.22070 | 20181 ft | 390 kts | 171° |
| 2026-04-23 17:04 | 42.25668 | 17.22283 | 19721 ft | 389 kts | 171° |
| 2026-04-23 17:04 | 42.23005 | 17.22491 | 19262 ft | 387 kts | 171° |
| 2026-04-23 17:04 | 42.20317 | 17.22702 | 18793 ft | 386 kts | 172° |
| 2026-04-23 17:04 | 42.17665 | 17.22912 | 18341 ft | 384 kts | 172° |
| 2026-04-23 17:05 | 42.14982 | 17.23121 | 17867 ft | 383 kts | 172° |
| 2026-04-23 17:05 | 42.12328 | 17.23326 | 17404 ft | 381 kts | 172° |
| 2026-04-23 17:05 | 42.09705 | 17.23531 | 16950 ft | 380 kts | 172° |
| 2026-04-23 17:05 | 42.07095 | 17.23735 | 16491 ft | 378 kts | 172° |
| 2026-04-23 17:06 | 42.04470 | 17.23941 | 16036 ft | 376 kts | 173° |
| 2026-04-23 17:06 | 42.01857 | 17.24144 | 15585 ft | 374 kts | 173° |
| 2026-04-23 17:06 | 41.99252 | 17.24346 | 15136 ft | 372 kts | 173° |
| 2026-04-23 17:06 | 41.96667 | 17.24548 | 14684 ft | 369 kts | 173° |
| 2026-04-23 17:07 | 41.94126 | 17.24585 | 14214 ft | 371 kts | 185° |
| 2026-04-23 17:07 | 41.91681 | 17.23488 | 13760 ft | 373 kts | 210° |
| 2026-04-23 17:07 | 41.89663 | 17.21372 | 13342 ft | 370 kts | 222° |
| 2026-04-23 17:07 | 41.87774 | 17.19043 | 12897 ft | 368 kts | 223° |
| 2026-04-23 17:08 | 41.85913 | 17.16730 | 12460 ft | 365 kts | 223° |
| 2026-04-23 17:08 | 41.84045 | 17.14448 | 12023 ft | 363 kts | 222° |
| 2026-04-23 17:08 | 41.82175 | 17.12194 | 11589 ft | 361 kts | 221° |
| 2026-04-23 17:08 | 41.80320 | 17.09980 | 11159 ft | 358 kts | 221° |
| 2026-04-23 17:09 | 41.78445 | 17.07757 | 10733 ft | 355 kts | 221° |
| 2026-04-23 17:09 | 41.76628 | 17.05606 | 10373 ft | 350 kts | 222° |
| 2026-04-23 17:09 | 41.74823 | 17.03469 | 10211 ft | 338 kts | 222° |
| 2026-04-23 17:09 | 41.73015 | 17.01562 | 10087 ft | 325 kts | 211° |
| 2026-04-23 17:10 | 41.71035 | 17.00333 | 9957 ft | 312 kts | 197° |
| 2026-04-23 17:10 | 41.68953 | 16.99503 | 9617 ft | 309 kts | 194° |
| 2026-04-23 17:10 | 41.66877 | 16.98761 | 9264 ft | 307 kts | 193° |
| 2026-04-23 17:10 | 41.64846 | 16.98034 | 8919 ft | 304 kts | 194° |
| 2026-04-23 17:11 | 41.62817 | 16.97290 | 8574 ft | 302 kts | 194° |
| 2026-04-23 17:11 | 41.60793 | 16.96533 | 8232 ft | 300 kts | 194° |
| 2026-04-23 17:11 | 41.58765 | 16.95767 | 8007 ft | 298 kts | 194° |
| 2026-04-23 17:11 | 41.56702 | 16.94985 | 8028 ft | 296 kts | 194° |
| 2026-04-23 17:12 | 41.54700 | 16.94225 | 7734 ft | 294 kts | 194° |
| 2026-04-23 17:12 | 41.52665 | 16.93828 | 7274 ft | 292 kts | 172° |
| 2026-04-23 17:12 | 41.50758 | 16.94483 | 6984 ft | 282 kts | 154° |
| 2026-04-23 17:12 | 41.48961 | 16.95508 | 6701 ft | 277 kts | 152° |
| 2026-04-23 17:13 | 41.47210 | 16.96537 | 6423 ft | 273 kts | 153° |
| 2026-04-23 17:13 | 41.45491 | 16.97525 | 6194 ft | 267 kts | 153° |
| 2026-04-23 17:13 | 41.43800 | 16.98466 | 5977 ft | 261 kts | 155° |
| 2026-04-23 17:13 | 41.42128 | 16.99309 | 5729 ft | 257 kts | 156° |
| 2026-04-23 17:14 | 41.40456 | 17.00131 | 5484 ft | 254 kts | 156° |
| 2026-04-23 17:14 | 41.38804 | 17.00941 | 5247 ft | 250 kts | 156° |
| 2026-04-23 17:14 | 41.37199 | 17.01728 | 5013 ft | 246 kts | 156° |
| 2026-04-23 17:14 | 41.35593 | 17.02519 | 4745 ft | 244 kts | 155° |
| 2026-04-23 17:15 | 41.34189 | 17.03661 | 4413 ft | 237 kts | 124° |
| 2026-04-23 17:15 | 41.33606 | 17.05588 | 4163 ft | 219 kts | 85° |
| 2026-04-23 17:15 | 41.33888 | 17.07455 | 4062 ft | 198 kts | 62° |
| 2026-04-23 17:15 | 41.34412 | 17.09127 | 4030 ft | 195 kts | 62° |
| 2026-04-23 17:16 | 41.34961 | 17.10912 | 4016 ft | 195 kts | 62° |
| 2026-04-23 17:16 | 41.35464 | 17.12617 | 4005 ft | 195 kts | 63° |
| 2026-04-23 17:16 | 41.35943 | 17.14292 | 4003 ft | 195 kts | 63° |
| 2026-04-23 17:16 | 41.36446 | 17.16057 | 4023 ft | 211 kts | 63° |
| 2026-04-23 17:17 | 41.36966 | 17.17907 | 4014 ft | 216 kts | 64° |
| 2026-04-23 17:17 | 41.37486 | 17.19780 | 4009 ft | 216 kts | 64° |
| 2026-04-23 17:17 | 41.37834 | 17.21036 | 4004 ft | 216 kts | 65° |
| 2026-04-23 17:17 | 41.37959 | 17.23706 | 3980 ft | 228 kts | 105° |
| 2026-04-23 17:18 | 41.35461 | 17.26364 | 4013 ft | 243 kts | 159° |
| 2026-04-23 17:18 | 41.33874 | 17.27063 | 4005 ft | 242 kts | 159° |
| 2026-04-23 17:18 | 41.32262 | 17.27785 | 3996 ft | 241 kts | 158° |
| 2026-04-23 17:19 | 41.30695 | 17.28515 | 3992 ft | 241 kts | 158° |
| 2026-04-23 17:19 | 41.28905 | 17.29124 | 3964 ft | 243 kts | 182° |
| 2026-04-23 17:19 | 41.27277 | 17.28340 | 3963 ft | 238 kts | 227° |
| 2026-04-23 17:19 | 41.26428 | 17.26520 | 3997 ft | 228 kts | 257° |
| 2026-04-23 17:20 | 41.26014 | 17.24525 | 4000 ft | 226 kts | 261° |
| 2026-04-23 17:20 | 41.25211 | 17.20606 | 3980 ft | 214 kts | 267° |
| 2026-04-23 17:21 | 41.24898 | 17.16736 | 3979 ft | 217 kts | 254° |
| 2026-04-23 17:21 | 41.24208 | 17.14935 | 3999 ft | 221 kts | 245° |
| 2026-04-23 17:21 | 41.22792 | 17.11343 | 3990 ft | 212 kts | 251° |
| 2026-04-23 17:22 | 41.22181 | 17.09434 | 3993 ft | 211 kts | 254° |
| 2026-04-23 17:22 | 41.21193 | 17.05878 | 4060 ft | 190 kts | 259° |
| 2026-04-23 17:23 | 41.20479 | 17.02914 | 3973 ft | 150 kts | 262° |
| 2026-04-23 17:23 | 41.20179 | 17.01625 | 3980 ft | 146 kts | 263° |
| 2026-04-23 17:23 | 41.19624 | 16.99073 | 3757 ft | 137 kts | 272° |
| 2026-04-23 17:24 | 41.19546 | 16.97837 | 3361 ft | 137 kts | 275° |
| 2026-04-23 17:24 | 41.19351 | 16.96578 | 2972 ft | 144 kts | 257° |
| 2026-04-23 17:24 | 41.18353 | 16.94290 | 2289 ft | 142 kts | 248° |
| 2026-04-23 17:25 | 41.17451 | 16.92044 | 1820 ft | 135 kts | 259° |
| 2026-04-23 17:25 | 41.17136 | 16.90876 | 1811 ft | 134 kts | 263° |
| 2026-04-23 17:26 | 41.16604 | 16.88499 | 1814 ft | 134 kts | 265° |
| 2026-04-23 17:26 | 41.16122 | 16.86101 | 1553 ft | 135 kts | 264° |
| 2026-04-23 17:27 | 41.15628 | 16.83699 | 1204 ft | 134 kts | 264° |
| 2026-04-23 17:27 | 41.15401 | 16.82499 | 1032 ft | 135 kts | 261° |
| 2026-04-23 17:27 | 41.15139 | 16.81290 | 754 ft | 135 kts | 260° |
| 2026-04-23 17:27 | 41.14885 | 16.80102 | 514 ft | 133 kts | 259° |
| 2026-04-23 17:28 | 41.14613 | 16.78919 | 378 ft | 136 kts | 256° |
| 2026-04-23 17:28 | 41.14320 | 16.77749 | 235 ft | 134 kts | 255° |
| 2026-04-23 17:28 | 41.14012 | 16.76613 | 130 ft | 121 kts | 250° |
| 2026-04-23 17:28 | 41.13767 | 16.75728 | 150 ft | 81 kts | 249° |
| 2026-04-23 17:29 | 41.13601 | 16.75142 | 165 ft | 52 kts | 248° |
| 2026-04-23 17:29 | 41.13511 | 16.74864 | 175 ft | 18 kts | 248° |
| 2026-04-23 17:29 | 41.13387 | 16.74790 | 177 ft | 9 kts | 128° |
| 2026-04-23 17:30 | 41.13359 | 16.74846 | 176 ft | 11 kts | 120° |
| 2026-04-23 17:30 | 41.13393 | 16.75089 | 168 ft | 13 kts | 68° |
| 2026-04-23 17:30 | 41.13427 | 16.75213 | 165 ft | 14 kts | 71° |
| 2026-04-23 17:31 | 41.13457 | 16.75327 | 161 ft | 10 kts | 69° |
| 2026-04-23 17:31 | 41.13487 | 16.75428 | 158 ft | 6 kts | 69° |
| 2026-04-23 17:31 | 41.13509 | 16.75502 | 157 ft | 10 kts | 69° |
| 2026-04-23 17:31 | 41.13538 | 16.75602 | 155 ft | 11 kts | 69° |
| 2026-04-23 17:32 | 41.13567 | 16.75705 | 153 ft | 12 kts | 73° |
| 2026-04-23 17:32 | 41.13598 | 16.75824 | 151 ft | 14 kts | 69° |
| 2026-04-23 17:32 | 41.13639 | 16.75962 | 148 ft | 15 kts | 70° |
| 2026-04-23 17:32 | 41.13681 | 16.76109 | 144 ft | 18 kts | 69° |
| 2026-04-23 17:33 | 41.13726 | 16.76276 | 142 ft | 19 kts | 71° |
| 2026-04-23 17:33 | 41.13761 | 16.76400 | 138 ft | 11 kts | 68° |
| 2026-04-23 17:33 | 41.13791 | 16.76500 | 138 ft | 11 kts | 69° |
| 2026-04-23 17:33 | 41.13821 | 16.76610 | 135 ft | 12 kts | 70° |
| 2026-04-23 17:34 | 41.13845 | 16.76723 | 132 ft | 13 kts | 101° |
| 2026-04-23 17:34 | 41.13789 | 16.76794 | 133 ft | 9 kts | 134° |
| 2026-04-23 17:34 | 41.13777 | 16.76905 | 131 ft | 3 kts | 75° |
| 2026-04-23 17:35 | 41.13784 | 16.76937 | 131 ft | 3 kts | 70° |
| 2026-04-23 17:35 | 41.13805 | 16.77013 | 131 ft | 3 kts | 90° |
| 2026-04-23 17:35 | 41.13791 | 16.77025 | 131 ft | 2 kts | 155° |
| 2026-04-23 17:36 | 41.13775 | 16.77029 | 131 ft | 2 kts | 178° |
| 2026-04-23 17:36 | 41.13765 | 16.77029 | 131 ft | 0 kts | 186° |